This is the latest recevied weather packets stored in our database for station/object TVARMINN. If no packets are shown the sender has not sent any weather packets the latest 10 day(s).
| Time | Temp. | Humidity | Pressure | Rain* | Wind** | Luminosity | Snow |
|---|---|---|---|---|---|---|---|
| 1788300277 | 13.33° C | 100% | 1008.1 hPa | 0 mm | - | - | - |
| 1788299077 | 13.89° C | 99% | 1008.1 hPa | 0 mm | - | - | - |
| 1788297877 | 14.44° C | 99% | 1008.2 hPa | 0 mm | - | - | - |
| 1788296675 | 14.44° C | 99% | 1008.1 hPa | 0 mm | - | - | - |
| 1788294276 | 15° C | 99% | 1008 hPa | 0 mm | - | - | - |
| 1788293075 | 15° C | 99% | 1008 hPa | 0 mm | - | - | - |
| 1788291873 | 15° C | 99% | 1008 hPa | 0 mm | - | - | - |
| 1788289476 | 14.44° C | 99% | 1007.9 hPa | 0 mm | - | - | - |
| 1788287075 | 15.56° C | 97% | 1007.9 hPa | 0 mm | - | - | - |
| 1788285874 | 15.56° C | 97% | 1008 hPa | 0 mm | - | - | - |
| 1788284675 | 15.56° C | 96% | 1008.2 hPa | 0 mm | - | - | - |
| 1788283477 | 16.11° C | 94% | 1008.1 hPa | 0 mm | - | - | - |
| 1788282276 | 16.11° C | 94% | 1008 hPa | 0 mm | - | - | - |
| 1788279875 | 16.67° C | 91% | 1007.9 hPa | 0 mm | - | - | - |
| 1788277473 | 18.33° C | 84% | 1008.1 hPa | 0 mm | - | - | - |
| 1788276275 | 17.78° C | 88% | 1008.1 hPa | 0 mm | - | - | - |
| 1788275074 | 18.33° C | 84% | 1008.1 hPa | 0 mm | - | - | - |
| 1788272674 | 19.44° C | 81% | 1008.2 hPa | 0 mm | - | - | - |
| 1788271474 | 19.44° C | 81% | 1008.2 hPa | 0 mm | - | - | - |
| 1788270274 | 18.33° C | 86% | 1008.3 hPa | 0 mm | - | - | - |
| 1788269074 | 18.89° C | 85% | 1008.4 hPa | 0 mm | - | - | - |
| 1788267873 | 18.89° C | 86% | 1008.2 hPa | 0 mm | - | - | - |
| 1788266674 | 18.33° C | 87% | 1008.3 hPa | 0 mm | - | - | - |
| 1788265475 | 18.89° C | 87% | 1008.5 hPa | 0 mm | - | - | - |
| 1788264274 | 18.33° C | 89% | 1008.5 hPa | 0 mm | - | - | - |
* Rain latest hour (hover to see other rain measurements)
** Current wind speed in m/s (hover to see current wind gust speed)